Etusivu
METAR-TAF:

METAR-TAF

Lentoasemat :

King Mswati III International Airport

Manzini, Swazimaa

Leveyspiiri: 26-21-24S, Pituuspiiri: 031-43-01E, korkeus merenpinnasta: 324 m

Tämänhetkinen sää

Tämä raportti tehtiin 55 minuuttia sitten, kello 04.00 UTC
Tuuli 3 kn etelästä/lounaasta
Lämpötila 19°C
Kosteus 94%
Ilmanpaine 1020 hPa
Näkyvyys 10 km tai enemmän
Muutamia pilviä 2500 ft:n korkeudessa

METAR: FDSK 230400Z 21003KT 9999 FEW025 19/18 Q1020 NOSIG

Aika: 06:55 (04:55 UTC)

Sääennuste

Tämä raportti tehtiin 18 tuntia ja 55 minuuttia sitten, kello 10.00 UTC
Ennuste voimassa 22. päivästä klo 12 UTC - 22. päivään klo 18 UTC
Tuuli 12 kn idästä/kaakosta
Näkyvyys 10 km tai enemmän
Hajonneita pilviä 3000 ft:n korkeudessa
Ajoittain
22. päivästä klo 15 UTC - 22. päivään klo 18 UTC
Näkyvyys: 7000 m
Hajanaisia pilviä 1000 ft:n korkeudessa
Hajonneita pilviä 2000 ft:n korkeudessa
tihkusadetta

TAF: FDSK 221000Z 2212/2218 12012KT 9999 BKN030 TEMPO 2215/2218 7000 DZ SCT010 BKN020

Säähavainnot ja -ennusteet yli 4000 lentoasemalta (METAR- ja TAF-raportit).

Käytössä olevat sääasemat on merkitty karttaan keltaisilla ja punaisilla pisteillä.

Aseta hiiri pisteen päälle nähdäksesi sääaseman nimen.

Klikkaa sitten nähdäksesi säähavainnot ja -ennusteet.

Kartan vaihtaminen: klikkaa mustalla rastilla varustettuja vihreitä pisteitä, niin voit zoomata sisään; viivalla varustettua vihreää pistettä, niin voit zoomata ulos tai vihreitä nuolia, niin pääset viereisille kartoille.


METAR-TAF: